Terminal Aerodrome Forecast
Issued by NWS

Home | Current Version | Previous Version | Text Only | Print | Product List | Glossary On
Versions: 1 2 3 4 5 6 7 8 9 10 11 12 13 14 15 16 17 18 19 20 21 22 23 24 25 26 27 28 29 30 31 32 33 34 35 36 37 38 39
000
FTUS44 KLIX 031100
TAFHUM
TAF
KHUM 031120Z 0312/0412 14004KT 1/4SM FG OVC001
     FM031600 16009KT P6SM BKN008
     FM031800 16011KT P6SM BKN015
     FM032000 16011KT P6SM BKN025
     FM040000 16008KT 3SM BR BKN015
     FM040400 16006KT 1/4SM FG BKN003=

USA.gov is the U.S. government's official web portal to all federal, state and local government web resources and services.